Time;durP1;ratioP1;P1;durP2;ratioP2;P2;SDS_P1;SDS_P2;PMS_P1;PMS_P2;Temp;Humidity;BMP_temperature;BMP_pressure;BME280_temperature;BME280_humidity;BME280_pressure;Samples;Min_cycle;Max_cycle;Signal;HPM_P1;HPM_P2
2022/09/28 00:02:20;;;;;;;5.28;3.63;;;;;;;22.08;58.98;98972.91;20629814;28;20077;-73
2022/09/28 00:12:21;;;;;;;4.63;3.50;;;;;;;22.06;59.19;98967.00;20628950;28;20153;-73
2022/09/28 00:22:21;;;;;;;4.65;3.50;;;;;;;22.04;58.77;98932.06;20641062;28;20050;-73
2022/09/28 00:32:23;;;;;;;3.80;2.95;;;;;;;22.00;58.81;98946.53;20631145;28;20050;-73
2022/09/28 00:42:25;;;;;;;4.07;3.40;;;;;;;22.01;59.17;98949.00;20639298;28;22956;-72
2022/09/28 00:52:38;;;;;;;5.03;3.60;;;;;;;22.00;58.94;98952.63;20641757;28;20041;-73
2022/09/28 01:02:38;;;;;;;4.05;2.97;;;;;;;21.98;58.53;98948.50;20653858;28;21871;-73
2022/09/28 01:12:39;;;;;;;2.92;2.65;;;;;;;21.98;58.83;98951.13;20643565;28;20073;-73
2022/09/28 01:23:11;;;;;;;4.15;3.22;;;;;;;21.98;58.62;98962.50;20645590;28;24930;-73
2022/09/28 01:33:23;;;;;;;3.75;2.90;;;;;;;21.95;58.82;98964.63;20641652;28;20046;-73
2022/09/28 01:43:26;;;;;;;3.58;2.72;;;;;;;21.91;58.67;98974.69;20645119;28;20049;-73
2022/09/28 01:53:41;;;;;;;2.92;2.50;;;;;;;21.90;58.46;98986.19;20640650;28;20176;-73
2022/09/28 02:03:58;;;;;;;3.08;2.50;;;;;;;21.85;58.46;98986.66;20644860;28;20066;-74
2022/09/28 02:14:04;;;;;;;2.75;2.33;;;;;;;21.88;58.34;98986.34;20638184;28;20085;-73
2022/09/28 02:24:20;;;;;;;3.42;2.47;;;;;;;21.88;58.66;98991.59;20632524;28;20043;-73
2022/09/28 02:34:21;;;;;;;2.60;2.13;;;;;;;21.86;58.90;98998.88;20636085;28;20113;-73
2022/09/28 02:44:46;;;;;;;2.90;2.17;;;;;;;21.86;58.35;99003.28;20629863;28;20049;-73
2022/09/28 02:55:08;;;;;;;3.00;2.20;;;;;;;21.83;58.32;98991.25;20630787;28;20044;-73
2022/09/28 03:05:11;;;;;;;2.23;1.83;;;;;;;21.83;58.28;99007.06;20626048;28;20042;-73
2022/09/28 03:15:23;;;;;;;2.95;1.85;;;;;;;21.82;58.16;99026.50;20629213;28;20093;-73
2022/09/28 03:25:24;;;;;;;2.10;1.87;;;;;;;21.82;58.17;99030.94;20623991;28;20048;-73
2022/09/28 03:35:24;;;;;;;2.25;1.92;;;;;;;21.80;58.41;99033.75;20624801;28;21927;-73
2022/09/28 03:45:25;;;;;;;2.23;1.80;;;;;;;21.78;58.43;99032.25;20621773;28;20045;-73
2022/09/28 03:55:26;;;;;;;1.92;1.83;;;;;;;21.76;58.50;99037.66;20627154;28;20402;-73
2022/09/28 04:05:26;;;;;;;2.70;1.80;;;;;;;21.77;58.11;99035.88;20616858;28;20053;-73
2022/09/28 04:15:27;;;;;;;1.92;1.70;;;;;;;21.80;58.92;99033.75;20618303;28;20148;-75
2022/09/28 04:25:27;;;;;;;2.17;1.88;;;;;;;21.92;60.19;99023.75;20596051;28;20056;-73
2022/09/28 04:35:28;;;;;;;3.45;1.90;;;;;;;21.96;60.59;99019.00;20593169;28;20042;-76
2022/09/28 04:45:28;;;;;;;9.85;2.05;;;;;;;21.98;60.68;99022.31;20612786;28;20050;-75
2022/09/28 04:55:31;;;;;;;17.10;3.50;;;;;;;22.00;60.37;99022.97;20620420;28;20038;-73
2022/09/28 05:05:34;;;;;;;;;;;;;;;22.00;59.01;99015.88;20617577;28;20057;-82
2022/09/28 05:15:35;;;;;;;;;;;;;;;21.87;53.72;99036.56;20628585;28;20336;-74
2022/09/28 05:25:35;;;;;;;21.65;3.75;;;;;;;21.90;57.96;99026.53;20607305;28;20044;-74
2022/09/28 05:35:36;;;;;;;17.50;3.22;;;;;;;21.95;58.22;99031.34;20648465;28;20389;-74
2022/09/28 05:45:36;;;;;;;17.52;3.15;;;;;;;21.94;58.23;99036.78;20638074;28;20054;-74
2022/09/28 05:55:37;;;;;;;15.00;2.88;;;;;;;21.81;55.50;99035.38;20659710;28;20050;-75
2022/09/28 06:05:40;;;;;;;9.45;2.50;;;;;;;21.85;57.57;99020.09;20649269;28;20092;-75
2022/09/28 06:15:42;;;;;;;18.20;2.10;;;;;;;21.90;57.43;99033.63;20647958;28;20085;-75
2022/09/28 06:25:42;;;;;;;10.20;2.10;;;;;;;21.92;57.56;99039.56;20632717;28;20093;-74
2022/09/28 06:35:43;;;;;;;9.77;2.38;;;;;;;21.89;57.36;99029.34;20640362;28;20449;-74
2022/09/28 06:45:50;;;;;;;5.63;2.05;;;;;;;21.87;57.18;99042.69;20614402;28;20049;-74
2022/09/28 06:55:50;;;;;;;4.53;2.13;;;;;;;21.89;57.61;99050.44;20624958;28;20147;-74
2022/09/28 07:05:53;;;;;;;5.85;2.63;;;;;;;21.91;57.85;99057.19;20624100;28;20448;-73
2022/09/28 07:15:54;;;;;;;12.10;3.88;;;;;;;21.86;57.90;99046.31;20594548;28;20179;-72
2022/09/28 07:25:56;;;;;;;6.22;3.38;;;;;;;21.89;57.59;99047.78;20642981;28;20089;-72
2022/09/28 07:35:59;;;;;;;9.27;4.07;;;;;;;21.87;57.41;99044.47;20627493;28;20134;-72
2022/09/28 07:45:59;;;;;;;9.80;4.18;;;;;;;21.84;57.26;99048.25;20617382;28;20457;-73
2022/09/28 07:56:06;;;;;;;8.73;4.95;;;;;;;21.81;57.18;99051.19;20652884;28;20050;-72
2022/09/28 08:06:10;;;;;;;9.80;5.25;;;;;;;21.77;57.19;99055.13;20655060;28;20038;-72
2022/09/28 08:16:11;;;;;;;7.75;5.03;;;;;;;21.72;57.47;99060.84;20655868;28;20096;-72
2022/09/28 08:26:15;;;;;;;8.43;5.10;;;;;;;21.78;57.23;99027.81;20649820;28;20054;-72
2022/09/28 08:36:15;;;;;;;9.55;6.00;;;;;;;21.82;56.63;99010.69;20655004;28;20112;-72
2022/09/28 08:46:19;;;;;;;11.15;7.25;;;;;;;21.82;57.01;99021.22;20659596;28;20034;-73
2022/09/28 08:56:46;;;;;;;9.45;6.90;;;;;;;21.84;56.68;99034.25;20647038;28;20923;-73
2022/09/28 09:07:14;;;;;;;9.07;6.82;;;;;;;21.85;56.88;99026.19;20662360;28;20157;-73
2022/09/28 09:17:31;;;;;;;10.02;7.22;;;;;;;21.85;57.11;99035.91;20669834;28;20137;-73
2022/09/28 09:27:56;;;;;;;10.90;8.27;;;;;;;21.88;57.10;99030.31;20664005;28;20038;-73
2022/09/28 09:37:56;;;;;;;11.48;8.43;;;;;;;21.94;56.61;99020.97;20666166;28;20416;-74
2022/09/28 09:48:08;;;;;;;11.15;8.20;;;;;;;21.98;56.89;99014.41;20667063;28;20038;-73
2022/09/28 09:58:15;;;;;;;10.48;7.85;;;;;;;22.07;56.50;99024.81;20671912;28;20505;-73
2022/09/28 10:08:20;;;;;;;11.55;8.38;;;;;;;22.12;56.04;99018.22;20661673;28;20042;-73
2022/09/28 10:18:20;;;;;;;11.85;7.80;;;;;;;22.17;55.73;99023.88;20662094;28;20065;-73
2022/09/28 10:28:47;;;;;;;9.30;7.82;;;;;;;22.20;55.80;99019.13;20653072;28;20050;-73
2022/09/28 10:38:47;;;;;;;9.82;7.90;;;;;;;22.25;55.65;99018.63;20657795;28;20046;-73
2022/09/28 10:48:59;;;;;;;10.57;8.68;;;;;;;22.28;55.56;99020.94;20657630;28;20085;-73
2022/09/28 10:59:00;;;;;;;10.67;8.37;;;;;;;22.32;55.54;99016.19;20660139;28;20057;-73
2022/09/28 11:09:24;;;;;;;10.70;8.65;;;;;;;22.34;55.11;99004.50;20650208;28;20042;-74
2022/09/28 11:19:28;;;;;;;10.25;7.90;;;;;;;22.45;55.08;98998.13;20647900;28;20046;-73
2022/09/28 11:29:40;;;;;;;9.77;8.05;;;;;;;22.54;54.95;98981.34;20656321;28;20099;-73
2022/09/28 11:39:49;;;;;;;9.20;7.30;;;;;;;22.66;54.86;98981.03;20646152;28;20378;-73
2022/09/28 11:49:59;;;;;;;8.55;6.82;;;;;;;22.74;54.33;98990.75;20651849;28;20041;-73
2022/09/28 12:00:11;;;;;;;8.52;6.75;;;;;;;22.83;54.59;98973.94;20657500;28;20049;-73
2022/09/28 12:10:19;;;;;;;7.68;5.82;;;;;;;22.91;54.23;98958.13;20663248;28;20068;-72
2022/09/28 12:20:25;;;;;;;6.55;5.85;;;;;;;23.02;53.97;98930.53;20683120;28;20046;-72
2022/09/28 12:30:29;;;;;;;10.82;6.00;;;;;;;23.10;53.87;98927.91;20680381;28;20049;-72
2022/09/28 12:40:39;;;;;;;10.15;6.57;;;;;;;23.21;53.85;98912.75;20664463;28;20034;-73
2022/09/28 12:51:27;;;;;;;12.02;6.93;;;;;;;23.28;53.57;98903.97;20680198;28;22430;-73
2022/09/28 13:02:06;;;;;;;11.95;6.95;;;;;;;23.36;53.28;98902.31;20647246;28;20050;-74
2022/09/28 13:12:16;;;;;;;9.75;5.90;;;;;;;23.52;53.54;98904.88;20680880;28;20513;-73
2022/09/28 13:22:45;;;;;;;8.43;6.28;;;;;;;23.60;54.16;98896.94;20665443;28;20046;-74
2022/09/28 13:32:47;;;;;;;8.88;5.75;;;;;;;23.69;54.23;98903.00;20656587;28;20042;-74
2022/09/28 13:42:49;;;;;;;13.10;5.27;;;;;;;23.70;54.16;98886.16;20670084;28;20453;-73
2022/09/28 13:53:12;;;;;;;16.80;9.98;;;;;;;23.71;53.60;98898.38;20669813;28;20288;-76
2022/09/28 14:03:52;;;;;;;14.40;9.48;;;;;;;23.72;53.43;98894.75;20683775;28;20049;-75
2022/09/28 14:14:05;;;;;;;15.85;9.77;;;;;;;23.78;53.75;98894.06;20697785;28;20038;-72
2022/09/28 14:24:18;;;;;;;14.48;10.00;;;;;;;23.89;53.49;98889.38;20699156;28;20074;-74
2022/09/28 14:34:32;;;;;;;15.00;9.95;;;;;;;23.80;53.16;98884.16;20664037;28;20144;-73
2022/09/28 14:45:01;;;;;;;21.27;12.30;;;;;;;23.89;52.72;98873.50;20647939;28;20155;-74
2022/09/28 14:55:02;;;;;;;24.13;13.13;;;;;;;23.94;52.38;98874.69;20658447;28;20097;-73
2022/09/28 15:05:28;;;;;;;21.63;12.15;;;;;;;23.91;52.05;98872.38;20658962;28;20046;-73
2022/09/28 15:15:37;;;;;;;25.95;12.60;;;;;;;23.86;51.63;98861.47;20668673;28;20042;-74
2022/09/28 15:25:37;;;;;;;20.65;12.73;;;;;;;23.72;52.07;98860.41;20686204;28;20091;-75
2022/09/28 15:35:41;;;;;;;21.48;11.82;;;;;;;23.59;52.21;98849.56;20703989;28;20078;-75
2022/09/28 15:45:43;;;;;;;26.02;12.38;;;;;;;23.42;52.90;98854.09;20692561;28;20069;-73
2022/09/28 15:55:44;;;;;;;19.63;11.30;;;;;;;23.22;53.10;98865.03;20682741;28;20044;-73
2022/09/28 16:05:58;;;;;;;19.90;11.95;;;;;;;23.16;53.36;98858.59;20676569;28;22048;-74
2022/09/28 16:15:59;;;;;;;16.55;10.70;;;;;;;23.05;52.50;98855.50;20659911;28;20054;-74
2022/09/28 16:26:09;;;;;;;15.45;10.57;;;;;;;23.03;52.34;98871.47;20650510;28;20102;-74
2022/09/28 16:36:13;;;;;;;19.60;10.43;;;;;;;22.95;52.97;98872.31;20655223;28;20601;-74
2022/09/28 16:46:16;;;;;;;14.40;10.10;;;;;;;22.88;53.02;98870.53;20656219;28;20061;-74
2022/09/28 16:56:17;;;;;;;16.48;10.82;;;;;;;22.80;53.07;98866.06;20651246;28;20041;-74
2022/09/28 17:06:20;;;;;;;15.68;10.02;;;;;;;22.83;52.76;98871.03;20598751;28;20037;-76
2022/09/28 17:16:21;;;;;;;18.42;9.80;;;;;;;22.79;53.05;98867.06;20593652;28;20176;-74
2022/09/28 17:26:33;;;;;;;17.30;11.00;;;;;;;22.81;54.26;98873.84;20609016;28;20136;-75
2022/09/28 17:36:34;;;;;;;24.03;11.70;;;;;;;22.78;54.77;98874.16;20606879;28;20038;-74
2022/09/28 17:46:44;;;;;;;18.48;11.15;;;;;;;22.79;54.92;98885.53;20665265;28;20077;-73
2022/09/28 17:56:45;;;;;;;16.40;11.00;;;;;;;22.77;55.00;98880.41;20660766;28;20068;-74
2022/09/28 18:06:45;;;;;;;15.90;10.95;;;;;;;22.76;55.26;98889.31;20642466;28;20041;-73
2022/09/28 18:16:46;;;;;;;19.10;10.32;;;;;;;22.71;55.51;98894.28;20640295;28;24145;-72
2022/09/28 18:26:46;;;;;;;17.38;10.52;;;;;;;22.70;55.50;98903.19;20650178;28;20121;-71
2022/09/28 18:36:47;;;;;;;18.05;10.38;;;;;;;22.70;55.77;98908.47;20639826;28;20112;-72
2022/09/28 18:46:48;;;;;;;18.77;9.45;;;;;;;22.71;55.58;98916.19;20637377;28;20034;-71
2022/09/28 18:56:50;;;;;;;16.27;9.88;;;;;;;22.69;56.79;98920.84;20620642;28;20493;-72
2022/09/28 19:06:51;;;;;;;17.37;9.47;;;;;;;22.64;56.79;98923.16;20649938;28;20046;-71
2022/09/28 19:16:51;;;;;;;15.50;9.32;;;;;;;22.64;56.50;98928.44;20634581;28;20041;-72
2022/09/28 19:26:55;;;;;;;13.15;8.93;;;;;;;22.61;56.30;98926.09;20647767;28;20100;-73
2022/09/28 19:36:56;;;;;;;13.77;7.95;;;;;;;22.54;56.37;98918.03;20664325;28;20053;-72
2022/09/28 19:46:57;;;;;;;15.38;8.00;;;;;;;22.52;56.32;98917.38;20667545;28;21642;-74
2022/09/28 19:56:58;;;;;;;12.80;8.10;;;;;;;22.52;56.13;98916.53;20673111;28;20041;-72
2022/09/28 20:06:58;;;;;;;13.18;7.63;;;;;;;22.51;56.02;98909.63;20669174;28;20050;-72
2022/09/28 20:16:59;;;;;;;12.45;7.60;;;;;;;22.50;56.11;98900.06;20674410;28;20114;-73
2022/09/28 20:27:00;;;;;;;9.13;6.43;;;;;;;22.48;55.90;98896.75;20674568;28;20069;-75
2022/09/28 20:37:00;;;;;;;9.82;7.15;;;;;;;22.45;56.60;98889.16;20675381;28;20130;-73
2022/09/28 20:47:01;;;;;;;9.50;6.88;;;;;;;22.45;56.17;98886.50;20676404;28;20046;-72
2022/09/28 20:57:16;;;;;;;9.15;6.20;;;;;;;22.45;56.13;98878.59;20669376;28;21687;-72
2022/09/28 21:07:16;;;;;;;9.52;6.32;;;;;;;22.42;55.90;98871.84;20687341;28;20441;-73
2022/09/28 21:17:16;;;;;;;9.10;6.00;;;;;;;22.43;55.94;98865.56;20684576;28;20042;-73
2022/09/28 21:27:17;;;;;;;10.13;5.95;;;;;;;22.44;55.79;98853.22;20685840;28;20038;-73
2022/09/28 21:37:17;;;;;;;9.25;5.93;;;;;;;22.44;55.42;98850.59;20687443;28;20038;-75
2022/09/28 21:47:17;;;;;;;8.38;5.85;;;;;;;22.45;55.50;98852.22;20697974;28;20057;-73
2022/09/28 21:57:18;;;;;;;7.45;5.22;;;;;;;22.46;55.55;98862.63;20682642;28;20408;-72
2022/09/28 22:07:18;;;;;;;9.18;5.25;;;;;;;22.46;55.88;98864.41;20660968;28;20172;-72
2022/09/28 22:17:18;;;;;;;7.10;4.85;;;;;;;22.43;56.08;98857.66;20671891;28;20050;-72
2022/09/28 22:27:19;;;;;;;7.68;4.97;;;;;;;22.42;56.16;98852.56;20672048;28;20138;-72
2022/09/28 22:37:19;;;;;;;6.30;4.75;;;;;;;22.42;56.37;98848.09;20669758;28;20042;-71
2022/09/28 22:47:19;;;;;;;6.55;4.38;;;;;;;22.43;56.37;98843.66;20674825;28;20046;-71
2022/09/28 22:57:20;;;;;;;5.97;4.72;;;;;;;22.38;56.43;98841.53;20684097;28;20054;-71
2022/09/28 23:07:20;;;;;;;6.93;4.10;;;;;;;22.37;56.62;98843.31;20670870;28;20042;-72
2022/09/28 23:17:21;;;;;;;6.25;4.07;;;;;;;22.38;56.41;98854.72;20663163;28;20093;-72
2022/09/28 23:27:21;;;;;;;10.15;4.18;;;;;;;22.35;56.63;98847.91;20652703;28;20035;-72
2022/09/28 23:37:22;;;;;;;5.32;3.92;;;;;;;22.35;56.41;98837.38;20655432;28;20382;-72
2022/09/28 23:47:22;;;;;;;4.90;4.07;;;;;;;22.35;56.35;98847.06;20665752;28;20041;-72
2022/09/28 23:57:22;;;;;;;6.13;3.80;;;;;;;22.35;56.65;98858.47;20668158;28;20069;-72
